Time;durP1;ratioP1;P1;durP2;ratioP2;P2;SDS_P1;SDS_P2;PMS_P1;PMS_P2;Temp;Humidity;BMP_temperature;BMP_pressure;BME280_temperature;BME280_humidity;BME280_pressure;Samples;Min_cycle;Max_cycle;Signal;HPM_P1;HPM_P2
2023/06/10 00:01:51;;;;;;;11.90;9.75;;;21.40;97.50;;;;;;5075063;28;20220;-81
2023/06/10 00:04:41;;;;;;;13.15;9.85;;;21.30;97.40;;;;;;5066583;28;20227;-81
2023/06/10 00:07:31;;;;;;;12.98;9.57;;;21.40;97.90;;;;;;5050011;28;20236;-80
2023/06/10 00:10:19;;;;;;;11.00;9.57;;;21.30;97.50;;;;;;5068462;28;20234;-81
2023/06/10 00:13:08;;;;;;;11.30;9.70;;;21.20;97.20;;;;;;5069800;28;20351;-81
2023/06/10 00:15:57;;;;;;;12.68;9.23;;;21.10;96.80;;;;;;5067772;28;20779;-81
2023/06/10 00:18:46;;;;;;;14.77;8.77;;;21.10;96.50;;;;;;5063399;28;20224;-81
2023/06/10 00:21:39;;;;;;;12.70;8.88;;;21.10;95.60;;;;;;5074559;28;20224;-81
2023/06/10 00:24:29;;;;;;;11.18;7.85;;;21.10;95.30;;;;;;5075051;28;20323;-82
2023/06/10 00:27:18;;;;;;;11.55;8.05;;;21.10;94.40;;;;;;5079310;28;20220;-81
2023/06/10 00:30:08;;;;;;;10.13;7.85;;;21.10;94.20;;;;;;5052274;28;20258;-80
2023/06/10 00:32:57;;;;;;;10.93;7.45;;;21.10;95.20;;;;;;5047115;28;20244;-81
2023/06/10 00:35:46;;;;;;;11.55;6.97;;;21.00;93.50;;;;;;5060663;28;20232;-81
2023/06/10 00:38:37;;;;;;;8.80;6.55;;;21.10;93.60;;;;;;5054452;28;20216;-81
2023/06/10 00:41:27;;;;;;;7.68;6.88;;;20.90;93.00;;;;;;5063952;28;20440;-79
2023/06/10 00:44:16;;;;;;;7.57;6.20;;;20.80;93.00;;;;;;5062970;28;20738;-80
2023/06/10 00:47:06;;;;;;;8.88;6.45;;;20.80;93.60;;;;;;5061080;28;20227;-81
2023/06/10 00:49:55;;;;;;;10.65;6.03;;;20.70;91.80;;;;;;5053956;28;20224;-81
2023/06/10 00:52:46;;;;;;;13.98;6.05;;;20.60;90.80;;;;;;5066162;28;20693;-81
2023/06/10 00:55:36;;;;;;;9.10;6.10;;;20.60;90.40;;;;;;5055596;28;20228;-81
2023/06/10 00:58:26;;;;;;;11.30;6.28;;;20.60;90.00;;;;;;5074841;28;20232;-78
2023/06/10 01:01:15;;;;;;;9.88;6.05;;;20.40;87.70;;;;;;5051950;28;20213;-80
2023/06/10 01:04:04;;;;;;;8.18;5.35;;;20.40;87.00;;;;;;5048641;28;20212;-81
2023/06/10 01:06:58;;;;;;;9.85;5.75;;;20.30;87.20;;;;;;5063501;28;20208;-81
2023/06/10 01:09:56;;;;;;;13.48;6.53;;;20.20;86.70;;;;;;5070190;28;20305;-80
2023/06/10 01:13:02;;;;;;;8.35;5.93;;;20.20;87.90;;;;;;5066106;28;20251;-80
2023/06/10 01:15:53;;;;;;;12.45;6.20;;;20.30;87.40;;;;;;5072749;28;20227;-80
2023/06/10 01:18:41;;;;;;;8.07;5.95;;;20.20;85.60;;;;;;5046334;28;20226;-81
2023/06/10 01:21:32;;;;;;;10.60;5.82;;;20.00;86.20;;;;;;5062170;28;20689;-79
2023/06/10 01:24:23;;;;;;;7.30;5.60;;;19.90;85.60;;;;;;5057058;28;20281;-80
2023/06/10 01:27:16;;;;;;;9.00;6.25;;;19.90;85.10;;;;;;5081575;28;20226;-80
2023/06/10 01:30:13;;;;;;;9.63;5.32;;;19.90;85.00;;;;;;5081080;28;20234;-80
2023/06/10 01:33:03;;;;;;;8.80;5.72;;;19.90;85.40;;;;;;5073549;28;20602;-80
2023/06/10 01:35:53;;;;;;;9.52;5.45;;;19.90;84.90;;;;;;5041060;28;20251;-80
2023/06/10 01:38:45;;;;;;;8.40;5.63;;;19.90;84.80;;;;;;5060756;28;20238;-80
2023/06/10 01:41:36;;;;;;;9.75;5.82;;;19.80;84.60;;;;;;5061257;28;20227;-80
2023/06/10 01:44:25;;;;;;;6.93;5.00;;;19.80;85.10;;;;;;5069921;28;20239;-77
2023/06/10 01:47:14;;;;;;;6.82;5.20;;;19.70;84.60;;;;;;5066694;28;20231;-81
2023/06/10 01:50:04;;;;;;;13.10;5.63;;;19.80;84.40;;;;;;5059610;28;20219;-80
2023/06/10 01:52:52;;;;;;;6.72;5.30;;;19.70;84.00;;;;;;5075439;28;20239;-80
2023/06/10 01:55:42;;;;;;;11.68;5.30;;;19.70;84.30;;;;;;5071241;28;20737;-81
2023/06/10 01:58:31;;;;;;;11.27;5.65;;;19.60;84.60;;;;;;5051897;28;20601;-79
2023/06/10 02:01:20;;;;;;;8.00;5.25;;;19.40;84.80;;;;;;5067979;28;20268;-80
2023/06/10 02:04:09;;;;;;;10.38;5.25;;;19.50;85.70;;;;;;5057791;28;20702;-80
2023/06/10 02:06:58;;;;;;;7.95;5.68;;;19.50;84.60;;;;;;5062425;28;20230;-82
2023/06/10 02:09:47;;;;;;;8.27;5.63;;;19.40;84.80;;;;;;5086258;28;20227;-79
2023/06/10 02:12:37;;;;;;;11.68;5.60;;;19.50;84.90;;;;;;5084172;28;20223;-79
2023/06/10 02:15:26;;;;;;;12.70;5.25;;;19.40;85.30;;;;;;5081135;28;20226;-80
2023/06/10 02:18:15;;;;;;;9.20;5.43;;;19.40;85.10;;;;;;5066896;28;20273;-79
2023/06/10 02:21:04;;;;;;;9.20;5.43;;;19.20;86.20;;;;;;5068257;28;20293;-80
2023/06/10 02:23:53;;;;;;;7.50;5.10;;;19.10;86.60;;;;;;5048011;28;20231;-80
2023/06/10 02:26:42;;;;;;;8.20;5.10;;;19.00;86.70;;;;;;5071076;28;20246;-81
2023/06/10 02:29:32;;;;;;;6.70;4.93;;;19.00;86.90;;;;;;5072869;28;20262;-79
2023/06/10 02:32:21;;;;;;;9.23;5.68;;;19.00;87.20;;;;;;5068997;28;20228;-80
2023/06/10 02:35:12;;;;;;;12.52;5.43;;;19.00;87.20;;;;;;5061263;28;20250;-81
2023/06/10 02:38:02;;;;;;;7.20;5.35;;;18.90;87.80;;;;;;5074804;28;20310;-80
2023/06/10 02:40:51;;;;;;;7.88;5.22;;;18.80;88.20;;;;;;5056148;28;20352;-79
2023/06/10 02:43:40;;;;;;;10.52;5.75;;;18.80;88.40;;;;;;5056343;28;20274;-80
2023/06/10 02:46:31;;;;;;;10.00;5.00;;;18.80;88.50;;;;;;5084599;28;20219;-81
2023/06/10 02:49:21;;;;;;;10.15;5.30;;;18.80;88.90;;;;;;5067658;28;20802;-80
2023/06/10 02:52:11;;;;;;;6.97;5.10;;;18.80;89.50;;;;;;5055038;28;20720;-81
2023/06/10 02:55:01;;;;;;;8.38;5.13;;;18.90;89.10;;;;;;5059376;28;20538;-79
2023/06/10 02:57:50;;;;;;;10.85;4.75;;;18.80;89.70;;;;;;5067116;28;20296;-81
2023/06/10 03:00:42;;;;;;;8.35;5.05;;;18.80;89.50;;;;;;5071333;28;20239;-80
2023/06/10 03:03:34;;;;;;;11.10;5.63;;;19.00;89.40;;;;;;5057409;28;20266;-80
2023/06/10 03:06:29;;;;;;;10.05;4.75;;;18.80;89.80;;;;;;5048642;28;20213;-80
2023/06/10 03:09:28;;;;;;;8.77;5.38;;;18.80;90.00;;;;;;5050181;28;20298;-80
2023/06/10 03:12:19;;;;;;;12.32;4.90;;;18.90;90.30;;;;;;5060134;28;20344;-80
2023/06/10 03:15:10;;;;;;;10.13;4.85;;;19.00;89.90;;;;;;5067495;28;20599;-80
2023/06/10 03:18:00;;;;;;;10.50;5.05;;;18.80;90.80;;;;;;5064358;28;20595;-80
2023/06/10 03:20:51;;;;;;;9.68;4.82;;;18.90;90.20;;;;;;5064244;28;20224;-79
2023/06/10 03:23:41;;;;;;;6.00;4.70;;;18.90;90.30;;;;;;5070817;28;20235;-80
2023/06/10 03:26:30;;;;;;;10.10;4.95;;;18.80;90.30;;;;;;5045842;28;20718;-79
2023/06/10 03:29:20;;;;;;;8.90;4.78;;;18.80;90.40;;;;;;5051711;28;20216;-79
2023/06/10 03:32:09;;;;;;;11.35;5.07;;;19.10;90.90;;;;;;5060927;28;20304;-80
2023/06/10 03:35:00;;;;;;;10.13;4.95;;;19.00;90.40;;;;;;5066169;28;20231;-80
2023/06/10 03:37:54;;;;;;;7.22;4.68;;;19.10;90.50;;;;;;5070653;28;20294;-80
2023/06/10 03:40:43;;;;;;;7.47;4.78;;;19.10;90.50;;;;;;5073690;28;20234;-79
2023/06/10 03:43:32;;;;;;;11.15;5.38;;;19.20;90.30;;;;;;5053266;28;20467;-80
2023/06/10 03:46:21;;;;;;;11.85;5.10;;;19.00;90.50;;;;;;5044052;28;20554;-80
2023/06/10 03:49:11;;;;;;;9.25;4.90;;;18.90;90.60;;;;;;5052891;28;20224;-80
2023/06/10 03:52:00;;;;;;;9.07;5.10;;;19.00;90.90;;;;;;5065274;28;20756;-80
2023/06/10 03:54:50;;;;;;;8.45;4.78;;;19.10;90.70;;;;;;5078580;28;20243;-80
2023/06/10 03:57:39;;;;;;;7.88;4.75;;;19.10;90.90;;;;;;5065721;28;20223;-80
2023/06/10 04:00:28;;;;;;;10.23;5.07;;;19.10;90.80;;;;;;5062274;28;20231;-80
2023/06/10 04:03:17;;;;;;;9.88;4.63;;;19.20;91.10;;;;;;5082092;28;20223;-80
2023/06/10 04:06:12;;;;;;;11.88;4.63;;;19.40;91.00;;;;;;5059668;28;20793;-79
2023/06/10 04:09:01;;;;;;;10.50;5.07;;;19.40;90.70;;;;;;5072713;28;20227;-81
2023/06/10 04:11:52;;;;;;;11.93;5.20;;;19.40;90.80;;;;;;5052678;28;20231;-80
2023/06/10 04:14:41;;;;;;;10.05;5.18;;;19.40;90.60;;;;;;5060463;28;20887;-79
2023/06/10 04:17:32;;;;;;;9.70;4.50;;;19.30;90.70;;;;;;5065475;28;20220;-79
2023/06/10 04:20:22;;;;;;;12.10;5.22;;;19.50;90.80;;;;;;5064669;28;20227;-80
2023/06/10 04:23:11;;;;;;;8.63;4.53;;;19.50;90.40;;;;;;5051629;28;20239;-81
2023/06/10 04:26:02;;;;;;;7.15;4.85;;;19.60;90.80;;;;;;5077306;28;20224;-79
2023/06/10 04:28:53;;;;;;;15.32;4.43;;;19.70;90.70;;;;;;5079730;28;20238;-80
2023/06/10 04:31:42;;;;;;;8.05;4.85;;;19.80;90.50;;;;;;5073469;28;20582;-81
2023/06/10 04:34:31;;;;;;;10.43;4.90;;;19.70;90.50;;;;;;5078158;28;20235;-79
2023/06/10 04:37:20;;;;;;;10.13;4.55;;;19.60;90.70;;;;;;5044571;28;20216;-78
2023/06/10 04:40:10;;;;;;;7.40;4.65;;;19.90;90.80;;;;;;5058327;28;20296;-80
2023/06/10 04:42:59;;;;;;;9.32;4.82;;;20.00;90.60;;;;;;5056776;28;20231;-81
2023/06/10 04:45:50;;;;;;;6.65;4.82;;;20.30;90.30;;;;;;5062590;28;20228;-80
2023/06/10 04:48:39;;;;;;;7.30;4.75;;;20.30;90.10;;;;;;5055351;28;20247;-80
2023/06/10 04:51:28;;;;;;;8.73;4.72;;;20.00;90.10;;;;;;5060961;28;20224;-81
2023/06/10 04:54:17;;;;;;;9.13;4.80;;;20.20;90.20;;;;;;5041645;28;20216;-81
2023/06/10 04:57:07;;;;;;;10.23;4.68;;;20.30;90.30;;;;;;5077848;28;20300;-81
2023/06/10 04:59:56;;;;;;;9.90;5.07;;;20.10;90.10;;;;;;5074325;28;20230;-80
2023/06/10 05:02:49;;;;;;;9.85;4.60;;;20.10;90.10;;;;;;5078435;28;20222;-82
2023/06/10 05:05:38;;;;;;;8.05;4.68;;;20.00;90.10;;;;;;5060615;28;20230;-80
2023/06/10 05:08:27;;;;;;;8.65;4.75;;;20.10;90.40;;;;;;5038570;28;20592;-80
2023/06/10 05:11:16;;;;;;;11.50;5.10;;;20.20;90.50;;;;;;5075721;28;20729;-80
2023/06/10 05:14:05;;;;;;;8.27;4.43;;;20.50;90.20;;;;;;5060728;28;20663;-80
2023/06/10 05:16:54;;;;;;;10.27;4.70;;;20.70;90.30;;;;;;5080814;28;20223;-80
2023/06/10 05:19:44;;;;;;;11.40;5.45;;;20.50;90.20;;;;;;5050333;28;20274;-79
2023/06/10 05:22:34;;;;;;;7.75;4.55;;;20.60;90.10;;;;;;5061848;28;20539;-80
2023/06/10 05:25:23;;;;;;;8.77;4.97;;;20.40;90.10;;;;;;5073051;28;20232;-80
2023/06/10 05:28:11;;;;;;;7.25;4.47;;;20.30;90.30;;;;;;5045488;28;20294;-80
2023/06/10 05:31:03;;;;;;;6.43;4.72;;;20.40;90.60;;;;;;5076161;28;20263;-80
2023/06/10 05:33:52;;;;;;;8.65;4.63;;;20.60;90.30;;;;;;5059501;28;20294;-80
2023/06/10 05:36:43;;;;;;;7.53;4.82;;;20.90;90.10;;;;;;5073775;28;20230;-80
2023/06/10 05:39:32;;;;;;;9.95;5.07;;;21.10;89.40;;;;;;5073610;28;20785;-80
2023/06/10 05:42:21;;;;;;;8.45;5.13;;;21.30;89.60;;;;;;5060705;28;20220;-82
2023/06/10 05:45:11;;;;;;;8.57;4.93;;;21.20;88.20;;;;;;5046772;28;20778;-80
2023/06/10 05:47:59;;;;;;;8.05;4.60;;;21.20;89.20;;;;;;5081902;28;20231;-80
2023/06/10 05:50:48;;;;;;;9.30;4.85;;;21.00;89.30;;;;;;5070123;28;20222;-81
2023/06/10 05:53:39;;;;;;;8.52;5.10;;;20.70;90.20;;;;;;5067203;28;20228;-80
2023/06/10 05:56:28;;;;;;;9.68;4.78;;;20.70;90.30;;;;;;5062188;28;20308;-79
2023/06/10 05:59:17;;;;;;;7.90;4.85;;;20.70;90.20;;;;;;5068156;28;20247;-80
2023/06/10 06:02:06;;;;;;;10.45;5.03;;;20.90;90.10;;;;;;5083594;28;20230;-80
2023/06/10 06:04:56;;;;;;;9.30;4.80;;;21.30;90.10;;;;;;5070480;28;20694;-81
2023/06/10 06:07:44;;;;;;;7.47;4.45;;;21.30;89.50;;;;;;5079276;28;20227;-80
2023/06/10 06:10:35;;;;;;;7.82;4.97;;;21.20;89.80;;;;;;5059746;28;20219;-80
2023/06/10 06:13:24;;;;;;;8.32;4.47;;;21.40;89.40;;;;;;5047359;28;20748;-80
2023/06/10 06:16:12;;;;;;;7.50;5.20;;;21.50;90.00;;;;;;5072100;28;20235;-81
2023/06/10 06:19:02;;;;;;;9.60;4.90;;;21.80;89.60;;;;;;5077320;28;20216;-81
2023/06/10 06:21:51;;;;;;;6.25;4.57;;;21.70;88.00;;;;;;5059135;28;20217;-80
2023/06/10 06:24:43;;;;;;;10.02;4.88;;;21.80;89.10;;;;;;5045748;28;20627;-80
2023/06/10 06:27:34;;;;;;;7.63;4.82;;;21.60;88.80;;;;;;5053127;28;20288;-80
2023/06/10 06:30:23;;;;;;;6.50;4.95;;;21.40;89.40;;;;;;5056393;28;20227;-81
2023/06/10 06:33:12;;;;;;;9.05;5.25;;;21.60;89.70;;;;;;5083021;28;20315;-80
2023/06/10 06:36:00;;;;;;;6.63;5.03;;;21.70;89.60;;;;;;5070983;28;20259;-80
2023/06/10 06:38:49;;;;;;;8.55;5.07;;;21.80;88.90;;;;;;5059136;28;20272;-80
2023/06/10 06:41:38;;;;;;;9.15;4.57;;;21.90;87.90;;;;;;5036135;28;20780;-79
2023/06/10 06:44:28;;;;;;;8.27;5.18;;;22.20;88.80;;;;;;5056118;28;20224;-79
2023/06/10 06:47:19;;;;;;;8.82;4.93;;;22.70;88.50;;;;;;5049702;28;20635;-81
2023/06/10 06:50:09;;;;;;;8.32;4.90;;;23.10;87.00;;;;;;5076672;28;20730;-80
2023/06/10 06:52:58;;;;;;;8.68;5.05;;;23.30;85.10;;;;;;5076275;28;20219;-79
2023/06/10 06:55:47;;;;;;;12.40;5.00;;;23.40;85.50;;;;;;5071478;28;20227;-81
2023/06/10 06:58:36;;;;;;;9.68;5.13;;;23.10;85.40;;;;;;5063278;28;20764;-79
2023/06/10 07:01:26;;;;;;;10.43;4.97;;;22.40;86.50;;;;;;5069817;28;20230;-80
2023/06/10 07:04:16;;;;;;;6.75;4.85;;;23.00;86.80;;;;;;5031191;28;20224;-79
2023/06/10 07:07:08;;;;;;;11.07;5.28;;;23.30;85.70;;;;;;5068936;28;20726;-80
2023/06/10 07:09:56;;;;;;;11.10;5.75;;;23.20;84.70;;;;;;5060101;28;20242;-80
2023/06/10 07:12:45;;;;;;;8.68;5.38;;;24.60;82.30;;;;;;5047496;28;21483;-80
2023/06/10 07:15:34;;;;;;;11.80;5.07;;;24.50;82.90;;;;;;5047618;28;20247;-80
2023/06/10 07:18:24;;;;;;;8.50;5.32;;;24.60;81.70;;;;;;5070986;28;20248;-77
2023/06/10 07:21:13;;;;;;;7.57;5.07;;;24.80;81.50;;;;;;5053213;28;20228;-80
2023/06/10 07:24:02;;;;;;;8.13;5.03;;;24.70;81.20;;;;;;5050010;28;20270;-80
2023/06/10 07:26:51;;;;;;;12.98;5.25;;;24.40;80.70;;;;;;5069974;28;20413;-80
2023/06/10 07:29:40;;;;;;;6.72;5.07;;;24.70;81.80;;;;;;5057245;28;20235;-80
2023/06/10 07:32:29;;;;;;;9.18;5.35;;;25.20;79.50;;;;;;5050605;28;20224;-80
2023/06/10 07:35:19;;;;;;;9.65;5.35;;;25.30;79.80;;;;;;5069957;28;20231;-81
2023/06/10 07:38:08;;;;;;;7.78;5.55;;;25.90;77.20;;;;;;5073321;28;20216;-80
2023/06/10 07:40:57;;;;;;;8.65;5.20;;;26.30;77.30;;;;;;5067064;28;20236;-80
2023/06/10 07:43:46;;;;;;;14.48;5.60;;;26.40;75.60;;;;;;5065254;28;20277;-81
2023/06/10 07:46:34;;;;;;;12.85;5.38;;;26.30;75.20;;;;;;5047865;28;20224;-81
2023/06/10 07:49:23;;;;;;;9.18;5.07;;;26.30;75.50;;;;;;5056994;28;20739;-81
2023/06/10 07:52:13;;;;;;;7.53;5.20;;;27.20;74.50;;;;;;5073192;28;20283;-80
2023/06/10 07:55:03;;;;;;;12.82;5.20;;;27.20;73.20;;;;;;5043769;28;20223;-81
2023/06/10 07:57:52;;;;;;;14.00;5.80;;;26.90;72.80;;;;;;5055671;28;20259;-81
2023/06/10 08:00:41;;;;;;;6.70;5.10;;;27.50;73.60;;;;;;5059510;28;21082;-80
2023/06/10 08:03:29;;;;;;;7.38;5.57;;;27.10;71.20;;;;;;5049933;28;20219;-81
2023/06/10 08:06:19;;;;;;;12.43;5.40;;;26.90;72.20;;;;;;5062713;28;20234;-81
2023/06/10 08:09:09;;;;;;;11.27;5.28;;;27.60;71.50;;;;;;5072854;28;20222;-81
2023/06/10 08:11:58;;;;;;;11.57;5.50;;;26.80;71.40;;;;;;5056196;28;20301;-80
2023/06/10 08:14:47;;;;;;;6.78;5.30;;;27.30;71.90;;;;;;5080135;28;20223;-82
2023/06/10 08:17:35;;;;;;;10.73;5.80;;;26.80;72.40;;;;;;5061165;28;20318;-81
2023/06/10 08:20:24;;;;;;;7.85;5.50;;;27.10;71.70;;;;;;5045059;28;20347;-81
2023/06/10 08:23:15;;;;;;;13.10;5.72;;;27.90;71.50;;;;;;5064133;28;20224;-82
2023/06/10 08:26:05;;;;;;;9.90;5.72;;;27.40;70.70;;;;;;5036020;28;20756;-81
2023/06/10 08:28:55;;;;;;;12.00;5.30;;;26.30;72.30;;;;;;5059475;28;20220;-81
2023/06/10 08:31:45;;;;;;;14.27;5.88;;;26.20;72.70;;;;;;5062628;28;20706;-82
2023/06/10 08:34:36;;;;;;;8.32;5.80;;;26.00;73.40;;;;;;5042453;28;20361;-81
2023/06/10 08:37:25;;;;;;;9.55;5.70;;;25.40;74.20;;;;;;5057466;28;20273;-81
2023/06/10 08:40:14;;;;;;;8.32;5.13;;;25.50;72.80;;;;;;5052185;28;20616;-81
2023/06/10 08:43:08;;;;;;;7.68;4.95;;;25.40;71.50;;;;;;5064452;28;20223;-81
2023/06/10 08:46:01;;;;;;;10.95;5.13;;;25.50;71.60;;;;;;5058869;28;20224;-81
2023/06/10 08:48:57;;;;;;;9.23;5.20;;;26.30;70.50;;;;;;5052785;28;20226;-81
2023/06/10 08:51:47;;;;;;;8.63;5.38;;;27.10;68.20;;;;;;5079222;28;20678;-81
2023/06/10 08:54:39;;;;;;;7.30;5.45;;;27.70;67.30;;;;;;5083766;28;20594;-81
2023/06/10 08:57:28;;;;;;;6.70;4.60;;;27.80;66.10;;;;;;5060583;28;20239;-80
2023/06/10 09:00:19;;;;;;;9.85;5.40;;;28.00;66.70;;;;;;5085622;28;20258;-81
2023/06/10 09:03:08;;;;;;;9.98;5.22;;;28.00;64.80;;;;;;5055597;28;20300;-81
2023/06/10 09:05:58;;;;;;;12.63;5.60;;;27.20;67.60;;;;;;5080718;28;20223;-82
2023/06/10 09:08:47;;;;;;;6.10;5.28;;;27.80;64.70;;;;;;5083827;28;20753;-81
2023/06/10 09:11:37;;;;;;;12.57;5.15;;;28.40;63.30;;;;;;5076936;28;20219;-81
2023/06/10 09:14:27;;;;;;;5.82;4.55;;;28.50;61.30;;;;;;5042967;28;20227;-82
2023/06/10 09:17:17;;;;;;;12.45;5.20;;;28.10;60.80;;;;;;5065766;28;20235;-81
2023/06/10 09:20:07;;;;;;;7.90;5.22;;;27.80;62.70;;;;;;5051928;28;20231;-81
2023/06/10 09:23:00;;;;;;;9.27;5.55;;;27.80;64.30;;;;;;5060107;28;20231;-81
2023/06/10 09:25:57;;;;;;;10.70;5.72;;;28.50;65.70;;;;;;5061723;28;20219;-81
2023/06/10 09:28:49;;;;;;;11.13;6.00;;;27.70;64.70;;;;;;5064115;28;20287;-82
2023/06/10 09:31:40;;;;;;;8.25;6.40;;;28.60;66.10;;;;;;5080040;28;20572;-80
2023/06/10 09:34:31;;;;;;;6.53;5.78;;;27.10;65.60;;;;;;5055189;28;20216;-81
2023/06/10 09:37:23;;;;;;;7.95;5.78;;;26.90;65.50;;;;;;5048164;28;20239;-82
2023/06/10 09:40:13;;;;;;;12.63;5.32;;;27.70;64.70;;;;;;5078327;28;21153;-83
2023/06/10 09:43:02;;;;;;;10.95;5.05;;;28.40;64.10;;;;;;5060439;28;20232;-83
2023/06/10 09:45:52;;;;;;;7.60;5.70;;;29.60;62.20;;;;;;5059210;28;20231;-81
2023/06/10 09:48:43;;;;;;;10.90;5.20;;;29.50;63.00;;;;;;5085334;28;20245;-81
2023/06/10 09:51:34;;;;;;;5.80;4.93;;;29.90;62.00;;;;;;5082576;28;20238;-82
2023/06/10 09:54:23;;;;;;;10.88;4.95;;;30.00;59.00;;;;;;5066603;28;20227;-81
2023/06/10 09:57:12;;;;;;;6.80;4.30;;;29.80;56.00;;;;;;5071638;28;20408;-83
2023/06/10 10:00:05;;;;;;;4.90;4.40;;;29.20;55.90;;;;;;5047192;28;20262;-82
2023/06/10 10:02:59;;;;;;;8.20;5.07;;;29.40;56.00;;;;;;5076816;28;20302;-81
2023/06/10 10:05:50;;;;;;;8.60;5.10;;;29.80;59.20;;;;;;5056683;28;20220;-81
2023/06/10 10:08:43;;;;;;;9.13;5.07;;;30.60;58.40;;;;;;5056475;28;20611;-83
2023/06/10 10:11:34;;;;;;;7.65;5.00;;;30.10;57.60;;;;;;5052024;28;20329;-82
2023/06/10 10:14:23;;;;;;;6.53;4.60;;;31.30;57.00;;;;;;5053498;28;20921;-81
2023/06/10 10:17:14;;;;;;;6.97;4.25;;;31.60;52.50;;;;;;5058847;28;20215;-82
2023/06/10 10:20:06;;;;;;;5.43;4.60;;;31.90;50.00;;;;;;5053117;28;20350;-82
2023/06/10 10:22:58;;;;;;;9.65;5.10;;;32.70;51.30;;;;;;5064705;28;20226;-82
2023/06/10 10:25:54;;;;;;;9.25;4.95;;;33.50;50.70;;;;;;5068456;28;20224;-82
2023/06/10 10:28:48;;;;;;;7.90;5.03;;;35.90;50.50;;;;;;5053187;28;20227;-81
2023/06/10 10:31:40;;;;;;;8.43;4.53;;;35.20;48.60;;;;;;5066282;28;20710;-82
2023/06/10 10:34:35;;;;;;;8.50;4.93;;;35.10;48.20;;;;;;5059109;28;20878;-83
2023/06/10 10:37:25;;;;;;;9.25;4.95;;;33.60;49.20;;;;;;5066159;28;20223;-83
2023/06/10 10:40:14;;;;;;;6.35;4.47;;;34.70;47.60;;;;;;5056465;28;20223;-82
2023/06/10 10:43:06;;;;;;;6.70;4.05;;;34.70;48.50;;;;;;5053278;28;20235;-82
2023/06/10 10:46:01;;;;;;;7.07;4.40;;;36.60;45.90;;;;;;5072257;28;20473;-83
2023/06/10 10:48:54;;;;;;;9.18;4.22;;;37.80;44.50;;;;;;5034764;28;20235;-82
2023/06/10 10:52:01;;;;;;;9.32;4.20;;;37.80;40.80;;;;;;5040762;28;20219;-82
2023/06/10 10:54:50;;;;;;;7.32;4.30;;;36.70;40.70;;;;;;5033076;28;20730;-83
2023/06/10 10:57:40;;;;;;;6.50;4.13;;;33.00;45.00;;;;;;5043125;28;21040;-83
2023/06/10 11:00:32;;;;;;;7.72;4.40;;;34.30;44.60;;;;;;5075080;28;20617;-83
2023/06/10 11:03:20;;;;;;;10.90;4.25;;;37.20;45.00;;;;;;5061052;28;20590;-84
2023/06/10 11:06:15;;;;;;;5.63;4.13;;;38.80;43.10;;;;;;5041850;28;20218;-83
2023/06/10 11:09:27;;;;;;;7.28;4.50;;;39.40;40.00;;;;;;5062595;28;20340;-83
2023/06/10 11:12:23;;;;;;;9.18;4.28;;;39.50;39.50;;;;;;5078528;28;20275;-84
2023/06/10 11:15:12;;;;;;;7.40;4.20;;;39.90;39.80;;;;;;5067426;28;20635;-84
2023/06/10 11:18:10;;;;;;;8.95;4.43;;;38.40;40.80;;;;;;5060441;28;20225;-84
2023/06/10 11:21:02;;;;;;;6.38;4.13;;;36.90;41.20;;;;;;5057591;28;20283;-84
2023/06/10 11:23:51;;;;;;;6.78;4.13;;;37.80;41.50;;;;;;5067966;28;20228;-83
2023/06/10 11:27:19;;;;;;;6.13;4.15;;;37.10;40.70;;;;;;5057503;28;20237;-85
2023/06/10 11:30:26;;;;;;;8.73;4.20;;;38.30;38.70;;;;;;5064688;28;20215;-84
2023/06/10 11:33:18;;;;;;;8.63;3.90;;;39.60;38.70;;;;;;5061903;28;20312;-84
2023/06/10 11:36:17;;;;;;;14.25;4.18;;;41.00;38.70;;;;;;5055909;28;20232;-80
2023/06/10 11:39:07;;;;;;;6.70;3.70;;;42.30;37.50;;;;;;5072124;28;20251;-85
2023/06/10 11:41:56;;;;;;;10.00;4.25;;;43.50;34.60;;;;;;5079613;28;20226;-84
2023/06/10 11:44:49;;;;;;;4.15;3.72;;;42.60;36.30;;;;;;5070037;28;20223;-84
2023/06/10 11:47:38;;;;;;;5.10;4.35;;;43.30;36.00;;;;;;5069257;28;20216;-85
2023/06/10 11:50:33;;;;;;;6.88;3.72;;;44.60;35.40;;;;;;5055109;28;20231;-82
2023/06/10 11:53:22;;;;;;;8.55;4.28;;;42.60;34.30;;;;;;5049165;28;20220;-85
2023/06/10 11:56:11;;;;;;;6.25;4.00;;;43.80;37.00;;;;;;5065942;28;20320;-86
2023/06/10 11:59:04;;;;;;;6.40;3.90;;;45.70;37.50;;;;;;5074751;28;20267;-86
2023/06/10 12:01:53;;;;;;;9.27;5.00;;;47.20;35.20;;;;;;5039239;28;20260;-85
2023/06/10 12:04:42;;;;;;;5.75;4.28;;;47.10;34.10;;;;;;5076832;28;20337;-85
2023/06/10 12:07:32;;;;;;;9.25;4.15;;;45.10;35.20;;;;;;5062674;28;20772;-86
2023/06/10 12:10:21;;;;;;;9.25;3.83;;;44.50;35.90;;;;;;5068074;28;20223;-86
2023/06/10 12:13:15;;;;;;;8.02;4.07;;;43.30;36.60;;;;;;5073383;28;20219;-86
2023/06/10 12:16:10;;;;;;;4.20;3.80;;;41.70;36.20;;;;;;5071328;28;20212;-86
2023/06/10 12:19:03;;;;;;;4.60;4.07;;;43.20;36.50;;;;;;5044226;28;20239;-86
2023/06/10 12:21:52;;;;;;;7.38;4.40;;;44.50;37.20;;;;;;5068035;28;20215;-85
2023/06/10 12:24:47;;;;;;;7.00;4.28;;;47.20;36.20;;;;;;5065120;28;20234;-84
2023/06/10 12:27:37;;;;;;;6.93;4.50;;;47.50;35.40;;;;;;5087030;28;20242;-83
2023/06/10 12:30:27;;;;;;;5.15;4.35;;;48.90;34.50;;;;;;5081341;28;20219;-78
2023/06/10 12:33:20;;;;;;;7.03;4.10;;;48.30;34.90;;;;;;5060944;28;20345;-83
2023/06/10 12:36:17;;;;;;;5.60;4.07;;;47.90;35.50;;;;;;5083477;28;20272;-84
2023/06/10 12:39:06;;;;;;;5.03;3.75;;;48.20;35.00;;;;;;5080167;28;20222;-85
2023/06/10 12:41:56;;;;;;;7.40;4.47;;;46.70;32.90;;;;;;5055781;28;20290;-87
2023/06/10 12:44:45;;;;;;;6.20;4.40;;;45.30;35.00;;;;;;5058502;28;20211;-85
2023/06/10 12:47:36;;;;;;;8.32;4.43;;;45.10;38.00;;;;;;5055507;28;21009;-85
2023/06/10 12:50:25;;;;;;;5.93;4.70;;;45.20;36.40;;;;;;5054045;28;20227;-83
2023/06/10 12:53:14;;;;;;;5.20;4.65;;;43.00;35.30;;;;;;5071946;28;20227;-84
2023/06/10 12:56:03;;;;;;;6.55;4.60;;;39.20;38.10;;;;;;5083627;28;20219;-84
2023/06/10 12:58:53;;;;;;;4.90;4.35;;;34.50;44.60;;;;;;5070167;28;20228;-84
2023/06/10 13:01:42;;;;;;;5.50;4.78;;;32.50;48.00;;;;;;5051481;28;20227;-83
2023/06/10 13:04:31;;;;;;;8.18;5.38;;;;;;;;;;5059324;28;20227;-81
2023/06/10 13:07:22;;;;;;;8.63;4.90;;;30.50;52.00;;;;;;5058786;28;20311;-82
2023/06/10 13:10:11;;;;;;;5.93;5.18;;;28.50;55.40;;;;;;5057244;28;20265;-82
2023/06/10 13:13:02;;;;;;;9.43;5.30;;;28.60;55.70;;;;;;5072158;28;20228;-83
2023/06/10 13:15:52;;;;;;;8.98;5.15;;;28.70;55.60;;;;;;5055026;28;20258;-82
2023/06/10 13:18:41;;;;;;;8.73;5.40;;;28.20;52.70;;;;;;5080582;28;20728;-84
2023/06/10 13:21:30;;;;;;;12.82;5.72;;;28.00;54.10;;;;;;5077299;28;20223;-84
2023/06/10 13:24:20;;;;;;;6.90;5.45;;;27.70;55.70;;;;;;5043186;28;20218;-84
2023/06/10 13:27:09;;;;;;;6.53;5.70;;;27.80;55.70;;;;;;5053657;28;20407;-85
2023/06/10 13:29:57;;;;;;;6.28;5.43;;;27.40;56.70;;;;;;5069629;28;20215;-83
2023/06/10 13:32:48;;;;;;;6.45;5.85;;;27.20;58.40;;;;;;5065297;28;20231;-83
2023/06/10 13:35:37;;;;;;;7.15;5.80;;;27.10;58.60;;;;;;5040595;28;20221;-83
2023/06/10 13:38:26;;;;;;;9.45;5.38;;;27.00;55.50;;;;;;5051134;28;20412;-76
2023/06/10 13:41:14;;;;;;;8.60;5.90;;;27.00;57.60;;;;;;5057603;28;20694;-82
2023/06/10 13:44:04;;;;;;;7.68;6.07;;;27.00;57.80;;;;;;5057632;28;20568;-83
2023/06/10 13:46:53;;;;;;;7.95;5.95;;;26.70;59.40;;;;;;5075891;28;20219;-83
2023/06/10 13:49:43;;;;;;;7.60;5.80;;;26.50;61.50;;;;;;5055515;28;20247;-83
2023/06/10 13:52:32;;;;;;;6.40;5.80;;;26.40;63.00;;;;;;5040298;28;20243;-83
2023/06/10 13:55:21;;;;;;;9.65;6.32;;;26.70;65.00;;;;;;5068525;28;20805;-84
2023/06/10 13:58:10;;;;;;;9.82;6.00;;;26.80;61.90;;;;;;5058108;28;20292;-83
2023/06/10 14:00:59;;;;;;;7.97;6.35;;;26.90;62.00;;;;;;5065606;28;20238;-83
2023/06/10 14:03:48;;;;;;;6.32;5.72;;;26.90;63.90;;;;;;5065123;28;20211;-82
2023/06/10 14:06:39;;;;;;;12.77;6.20;;;27.00;64.60;;;;;;5066106;28;20243;-84
2023/06/10 14:09:28;;;;;;;10.93;5.55;;;26.80;62.40;;;;;;5072204;28;20211;-83
2023/06/10 14:12:17;;;;;;;7.47;5.85;;;26.40;63.00;;;;;;5051478;28;20234;-83
2023/06/10 14:15:09;;;;;;;6.97;6.07;;;26.40;63.70;;;;;;5052908;28;20223;-84
2023/06/10 14:17:58;;;;;;;11.63;6.80;;;26.30;64.20;;;;;;5074620;28;20944;-83
2023/06/10 14:20:47;;;;;;;7.20;5.75;;;26.20;65.30;;;;;;5064735;28;20578;-84
2023/06/10 14:23:37;;;;;;;9.80;5.75;;;26.50;65.90;;;;;;5067712;28;20228;-83
2023/06/10 14:26:26;;;;;;;8.88;5.70;;;26.40;63.70;;;;;;5062043;28;20275;-81
2023/06/10 14:29:15;;;;;;;9.10;5.68;;;26.10;63.90;;;;;;5066983;28;20216;-84
2023/06/10 14:32:04;;;;;;;7.43;5.82;;;25.90;64.80;;;;;;5050159;28;20311;-83
2023/06/10 14:34:56;;;;;;;7.85;6.18;;;26.10;65.50;;;;;;5055877;28;20232;-84
2023/06/10 14:37:46;;;;;;;7.03;5.53;;;26.20;64.90;;;;;;5045104;28;20223;-83
2023/06/10 14:40:36;;;;;;;8.35;6.10;;;26.00;65.40;;;;;;5058629;28;20234;-83
2023/06/10 14:43:25;;;;;;;11.45;5.88;;;26.40;64.50;;;;;;5058632;28;20285;-83